Time;durP1;ratioP1;P1;durP2;ratioP2;P2;SDS_P1;SDS_P2;PMS_P1;PMS_P2;Temp;Humidity;BMP_temperature;BMP_pressure;BME280_temperature;BME280_humidity;BME280_pressure;Samples;Min_cycle;Max_cycle;Signal;HPM_P1;HPM_P2
2022/02/18 00:08:51;;;;;;;1.52;0.60;;;9.70;67.30;;;;;;20944707;28;20039;-76
2022/02/18 00:18:52;;;;;;;2.63;0.50;;;9.70;67.30;;;;;;20978548;28;20127;-79
2022/02/18 00:28:52;;;;;;;2.58;1.00;;;9.70;67.40;;;;;;20977211;28;20607;-78
2022/02/18 00:38:53;;;;;;;2.60;0.90;;;9.70;67.30;;;;;;20944114;28;20503;-77
2022/02/18 00:48:54;;;;;;;3.10;0.77;;;9.70;67.30;;;;;;20943506;28;20500;-77
2022/02/18 00:58:55;;;;;;;2.42;0.80;;;9.70;67.30;;;;;;20975772;28;20043;-77
2022/02/18 01:08:58;;;;;;;3.45;1.00;;;9.70;67.30;;;;;;20943872;28;20036;-77
2022/02/18 01:18:59;;;;;;;0.70;0.30;;;9.70;67.30;;;;;;20942852;28;20041;-76
2022/02/18 01:28:59;;;;;;;2.53;0.50;;;9.70;67.30;;;;;;20943673;28;20564;-76
2022/02/18 01:39:00;;;;;;;2.65;0.63;;;9.70;67.30;;;;;;20973860;28;20051;-77
2022/02/18 01:49:01;;;;;;;2.00;0.98;;;9.70;67.40;;;;;;20980999;28;20429;-77
2022/02/18 01:59:02;;;;;;;5.05;0.90;;;9.70;67.40;;;;;;20972415;28;20645;-75
2022/02/18 02:09:03;;;;;;;1.50;0.50;;;9.70;67.50;;;;;;20970960;28;20024;-75
2022/02/18 02:19:04;;;;;;;3.33;0.60;;;9.70;67.60;;;;;;20970551;28;20082;-75
2022/02/18 02:29:06;;;;;;;2.53;0.80;;;9.70;67.70;;;;;;20954371;28;20457;-76
2022/02/18 02:39:07;;;;;;;2.10;0.82;;;9.70;67.80;;;;;;20953338;28;20037;-75
2022/02/18 02:49:08;;;;;;;1.30;0.50;;;9.70;67.90;;;;;;21002387;28;20036;-77
2022/02/18 02:59:14;;;;;;;3.78;2.70;;;9.70;68.00;;;;;;20969364;28;20071;-75
2022/02/18 03:09:19;;;;;;;4.60;0.70;;;9.70;68.00;;;;;;20967550;28;20127;-75
2022/02/18 03:19:48;;;;;;;3.58;0.98;;;9.70;68.10;;;;;;20962825;28;20066;-75
2022/02/18 03:30:00;;;;;;;3.60;0.60;;;9.60;68.20;;;;;;20969736;28;20090;-75
2022/02/18 03:40:07;;;;;;;2.00;0.77;;;9.70;68.30;;;;;;20997558;28;20075;-74
2022/02/18 03:50:09;;;;;;;3.85;0.60;;;9.70;68.40;;;;;;20963105;28;20174;-75
2022/02/18 04:00:10;;;;;;;1.67;0.63;;;9.70;68.50;;;;;;20996210;28;20036;-74
2022/02/18 04:10:19;;;;;;;1.40;0.50;;;9.70;68.50;;;;;;20964341;28;20043;-76
2022/02/18 04:20:20;;;;;;;0.82;0.40;;;9.70;68.60;;;;;;20960507;28;20060;-75
2022/02/18 04:30:28;;;;;;;1.85;0.98;;;9.70;68.70;;;;;;20978939;28;20086;-75
2022/02/18 04:40:28;;;;;;;1.30;0.60;;;9.60;68.70;;;;;;20960711;28;20037;-75
2022/02/18 04:50:29;;;;;;;3.20;1.00;;;9.60;68.80;;;;;;20994182;28;20289;-75
2022/02/18 05:00:29;;;;;;;0.90;0.40;;;9.60;68.80;;;;;;20942421;28;20301;-78
2022/02/18 05:10:30;;;;;;;2.33;0.43;;;9.70;69.50;;;;;;20975215;28;20033;-76
2022/02/18 05:20:33;;;;;;;2.08;0.75;;;9.60;68.90;;;;;;21010663;28;20045;-78
2022/02/18 05:30:34;;;;;;;3.42;0.65;;;9.70;69.00;;;;;;20957483;28;20033;-79
2022/02/18 05:40:35;;;;;;;2.30;0.65;;;9.60;69.00;;;;;;20971770;28;20072;-80
2022/02/18 05:50:40;;;;;;;3.55;0.73;;;9.60;69.10;;;;;;20996867;28;20036;-77
2022/02/18 06:00:40;;;;;;;2.75;0.52;;;9.60;69.10;;;;;;21037624;28;20051;-78
2022/02/18 06:10:41;;;;;;;2.42;0.82;;;9.60;69.10;;;;;;21035569;28;20028;-82
2022/02/18 06:20:42;;;;;;;3.38;0.90;;;9.60;69.20;;;;;;21030713;28;20484;-83
2022/02/18 06:30:43;;;;;;;3.83;0.90;;;9.60;69.20;;;;;;21050501;28;20039;-77
2022/02/18 06:40:44;;;;;;;1.45;0.70;;;9.60;69.30;;;;;;20982998;28;20116;-76
2022/02/18 06:50:44;;;;;;;3.22;1.10;;;9.60;69.30;;;;;;21023019;28;20032;-78
2022/02/18 07:00:45;;;;;;;4.45;1.17;;;9.60;69.30;;;;;;21062010;28;20153;-77
2022/02/18 07:10:47;;;;;;;1.60;0.50;;;9.60;69.40;;;;;;20983082;28;20028;-75
2022/02/18 07:20:49;;;;;;;1.70;0.60;;;9.60;69.50;;;;;;20999436;28;20406;-76
2022/02/18 07:30:50;;;;;;;1.60;0.65;;;9.60;69.50;;;;;;20968166;28;20087;-75
2022/02/18 07:40:50;;;;;;;1.77;0.47;;;9.70;69.60;;;;;;20975813;28;20105;-75
2022/02/18 07:50:51;;;;;;;0.98;0.70;;;9.60;69.60;;;;;;20985761;28;20585;-75
2022/02/18 08:00:52;;;;;;;2.47;0.85;;;9.60;69.60;;;;;;20961010;28;20431;-75
2022/02/18 08:10:53;;;;;;;3.50;0.95;;;9.60;69.60;;;;;;21002465;28;20056;-76
2022/02/18 08:20:53;;;;;;;1.33;0.50;;;9.60;69.70;;;;;;21019889;28;20045;-75
2022/02/18 08:30:54;;;;;;;1.23;0.75;;;9.60;69.70;;;;;;20976353;28;20078;-75
2022/02/18 08:40:55;;;;;;;2.80;0.90;;;9.60;69.70;;;;;;20992015;28;20040;-75
2022/02/18 08:50:57;;;;;;;1.35;0.52;;;9.60;69.70;;;;;;21027494;28;20054;-74
2022/02/18 09:00:57;;;;;;;3.33;0.60;;;9.60;69.80;;;;;;21066080;28;20106;-75
2022/02/18 09:10:58;;;;;;;3.33;0.73;;;9.60;69.80;;;;;;20975381;28;20041;-74
2022/02/18 09:20:59;;;;;;;1.38;0.40;;;9.60;69.80;;;;;;20957431;28;20071;-75
2022/02/18 09:30:59;;;;;;;2.28;0.63;;;9.60;69.90;;;;;;20991075;28;20028;-77
2022/02/18 09:41:01;;;;;;;1.48;0.60;;;9.70;70.00;;;;;;20956839;28;20036;-76
2022/02/18 09:51:01;;;;;;;1.02;0.40;;;9.70;70.00;;;;;;20982904;28;20040;-74
2022/02/18 10:01:02;;;;;;;0.45;0.30;;;9.60;70.00;;;;;;20990807;28;20124;-77
2022/02/18 10:11:12;;;;;;;1.52;0.40;;;9.60;70.00;;;;;;21069066;28;20046;-75
2022/02/18 10:21:14;;;;;;;1.98;0.40;;;9.60;70.10;;;;;;21052988;28;20387;-76
2022/02/18 10:31:14;;;;;;;1.63;0.40;;;9.60;70.10;;;;;;21052383;28;20032;-75
2022/02/18 10:41:21;;;;;;;0.70;0.43;;;9.60;70.10;;;;;;21050162;28;20502;-75
2022/02/18 10:51:27;;;;;;;1.00;0.33;;;9.60;70.20;;;;;;20981406;28;20036;-73
2022/02/18 11:01:28;;;;;;;0.90;0.40;;;9.60;70.20;;;;;;20991879;28;20044;-75
2022/02/18 11:11:36;;;;;;;0.88;0.55;;;9.60;70.20;;;;;;21063606;28;20024;-72
2022/02/18 11:21:37;;;;;;;2.35;0.63;;;9.60;70.20;;;;;;21059545;28;20068;-75
2022/02/18 11:31:39;;;;;;;3.72;0.60;;;9.60;70.30;;;;;;20952817;28;20485;-75
2022/02/18 11:41:52;;;;;;;0.55;0.30;;;9.70;70.30;;;;;;20957384;28;20116;-72
2022/02/18 11:51:53;;;;;;;1.73;0.40;;;9.70;70.40;;;;;;21003290;28;20547;-74
2022/02/18 12:02:03;;;;;;;1.23;0.68;;;9.70;70.40;;;;;;20990665;28;20075;-73
2022/02/18 12:12:04;;;;;;;2.13;0.60;;;9.70;70.40;;;;;;21042678;28;20092;-79
2022/02/18 12:22:05;;;;;;;1.17;0.68;;;9.70;70.50;;;;;;21041288;28;20134;-79
2022/02/18 12:32:06;;;;;;;1.75;0.63;;;9.60;70.50;;;;;;21032498;28;20495;-74
2022/02/18 12:42:13;;;;;;;1.35;0.70;;;9.70;70.60;;;;;;21379211;22;20454;-83
2022/02/18 12:52:16;;;;;;;0.80;0.50;;;9.70;70.60;;;;;;21060476;28;20039;-83
2022/02/18 13:02:46;;;;;;;0.50;0.30;;;9.70;70.50;;;;;;21044645;28;20542;-82
2022/02/18 13:12:52;;;;;;;3.00;0.43;;;9.70;70.60;;;;;;21050087;28;20032;-83
2022/02/18 13:22:57;;;;;;;0.73;0.40;;;9.70;70.60;;;;;;21022637;28;20395;-80
2022/02/18 13:33:04;;;;;;;0.57;0.45;;;9.70;70.70;;;;;;21026175;28;20048;-80
2022/02/18 13:43:05;;;;;;;0.25;0.25;;;9.70;70.70;;;;;;21020138;28;20040;-77
2022/02/18 13:53:06;;;;;;;2.00;0.47;;;9.70;70.80;;;;;;21033244;28;20047;-76
2022/02/18 14:03:07;;;;;;;0.73;0.40;;;9.70;70.80;;;;;;21066990;28;20044;-78
2022/02/18 14:13:20;;;;;;;1.25;0.50;;;9.70;70.80;;;;;;21051545;28;20110;-76
2022/02/18 14:23:34;;;;;;;112.82;24.40;;;9.70;70.90;;;;;;21028371;28;20066;-75
2022/02/18 14:33:35;;;;;;;71.03;12.80;;;9.70;71.10;;;;;;21026857;28;20032;-75
2022/02/18 14:43:58;;;;;;;50.10;11.50;;;9.70;71.30;;;;;;21074908;28;20040;-76
2022/02/18 14:53:59;;;;;;;36.53;10.82;;;9.70;71.40;;;;;;21026864;28;20043;-76
2022/02/18 15:03:59;;;;;;;33.67;10.00;;;9.80;71.60;;;;;;21029652;28;20040;-76
2022/02/18 15:14:00;;;;;;;23.88;6.28;;;10.00;72.60;;;;;;21029348;28;20111;-74
2022/02/18 15:24:01;;;;;;;15.10;4.57;;;10.10;73.10;;;;;;21061281;28;20586;-76
2022/02/18 15:44:11;;;;;;;6.20;3.20;;;10.40;73.50;;;;;;21047313;28;20290;-77
2022/02/18 15:54:11;;;;;;;7.47;2.97;;;10.50;73.50;;;;;;21044161;28;20032;-79
2022/02/18 16:04:13;;;;;;;6.05;2.22;;;10.60;73.70;;;;;;21009698;28;20354;-81
2022/02/18 16:14:13;;;;;;;7.63;2.05;;;10.70;73.80;;;;;;21014195;28;20039;-76
2022/02/18 16:24:14;;;;;;;53.45;15.05;;;10.80;74.00;;;;;;21034035;28;20044;-78
2022/02/18 16:34:15;;;;;;;39.27;10.67;;;10.80;74.10;;;;;;21015471;28;20055;-76
2022/02/18 16:44:15;;;;;;;20.35;7.22;;;10.90;74.10;;;;;;21015714;28;20765;-81
2022/02/18 16:54:16;;;;;;;12.95;4.53;;;10.90;74.10;;;;;;21037831;28;20055;-74
2022/02/18 17:04:17;;;;;;;14.48;3.97;;;10.90;74.30;;;;;;21047736;28;20032;-73
2022/02/18 17:14:17;;;;;;;27.40;4.22;;;10.80;75.10;;;;;;21022647;28;20036;-77
2022/02/18 17:24:18;;;;;;;9.70;2.20;;;10.80;75.50;;;;;;21072810;28;20040;-78
2022/02/18 17:34:19;;;;;;;7.05;2.95;;;10.80;75.60;;;;;;21056185;28;20028;-78
2022/02/18 17:44:21;;;;;;;4.20;1.20;;;10.70;75.50;;;;;;21040432;28;20037;-82
2022/02/18 17:54:23;;;;;;;3.10;0.85;;;10.70;75.30;;;;;;20990370;28;20342;-80
2022/02/18 18:04:26;;;;;;;4.40;1.13;;;10.60;74.80;;;;;;21014668;28;20047;-82
2022/02/18 18:14:27;;;;;;;7.35;1.25;;;10.60;74.20;;;;;;21038582;28;20024;-82
2022/02/18 18:24:27;;;;;;;3.35;1.40;;;10.60;73.60;;;;;;21055402;28;20058;-82
2022/02/18 18:34:29;;;;;;;3.90;1.38;;;10.60;73.40;;;;;;21069003;28;20051;-82
2022/02/18 18:44:30;;;;;;;4.20;0.75;;;10.50;73.10;;;;;;21037221;28;20067;-83
2022/02/18 18:54:30;;;;;;;4.67;1.00;;;10.50;72.80;;;;;;21050061;28;20456;-81
2022/02/18 19:04:31;;;;;;;5.63;1.30;;;10.40;72.50;;;;;;21045134;28;20339;-83
2022/02/18 19:14:32;;;;;;;4.80;1.92;;;10.40;72.50;;;;;;21051020;28;20062;-82
2022/02/18 19:24:33;;;;;;;2.97;0.85;;;10.40;71.40;;;;;;21038487;28;20122;-82
2022/02/18 19:34:34;;;;;;;2.97;1.40;;;10.40;71.00;;;;;;21133501;28;20035;-83
2022/02/18 20:10:11;;;;;;;4.82;1.23;;;10.30;69.30;;;;;;20800625;27;20397;-77
2022/02/18 21:54:28;;;;;;;3.42;0.90;;;9.50;67.80;;;;;;20840932;28;20471;-77
2022/02/18 22:04:30;;;;;;;6.13;0.98;;;9.80;69.70;;;;;;20798348;28;20084;-75
2022/02/18 22:14:31;;;;;;;1.23;0.65;;;9.90;69.90;;;;;;20780422;28;20061;-76
2022/02/18 22:24:31;;;;;;;3.78;0.77;;;9.90;69.60;;;;;;20763283;28;20033;-76
2022/02/18 22:34:32;;;;;;;1.50;0.35;;;9.90;69.60;;;;;;20778161;28;20037;-76
2022/02/18 22:44:32;;;;;;;5.55;0.50;;;9.90;69.50;;;;;;20777250;28;20493;-76
2022/02/18 22:54:34;;;;;;;6.43;1.20;;;9.90;69.50;;;;;;20728585;28;20033;-77
2022/02/18 23:04:35;;;;;;;6.32;1.00;;;9.90;69.10;;;;;;20705461;28;20327;-76
2022/02/18 23:14:36;;;;;;;5.90;0.95;;;9.80;68.50;;;;;;20720816;28;20229;-75
2022/02/18 23:24:37;;;;;;;2.85;0.73;;;9.80;68.00;;;;;;20720285;28;20033;-77
2022/02/18 23:34:39;;;;;;;2.20;0.90;;;9.80;67.50;;;;;;20736732;28;20061;-76
2022/02/18 23:44:39;;;;;;;3.75;0.75;;;9.80;67.20;;;;;;20734802;28;20466;-76
2022/02/18 23:54:41;;;;;;;6.68;0.85;;;9.80;67.00;;;;;;20736130;28;20123;-76
